メインページ
METAR-TAF:

METAR-TAF

空港 :

アンマン, ヨルダン

緯度: 31-59N, 経度: 035-59E, 海抜: 767m

現時点の気象観測

当レポートは36分前の23:00(UTC)に作成
西の風 15kt
気温 9°C
湿度 71%
気圧 1017 hPa
視程: 6000m
高度3000ftの雲はほとんどない

METAR: OJAM 232300Z 28015KT 6000 FEW030 09/04 Q1017 NOSIG

時間: 02:36 (23:36 UTC)

予報

当レポートは6時間46分前の16:50(UTC)に作成
予報は23日の 18時(UTC)から 24日の 24時(UTC)まで有効
西/北西の風 12kt
視程: 5000m
高度3500ftの雲はほとんどない
煙霧
24日の 00時(UTC)から 24日の 05時(UTC)まで一時的に
西の風 8kt
視程: 3000m
高度3500ftの雲はほとんどない
24日の 06時(UTC)から 24日の 08時(UTC)まで徐々に
西/北西の風 12kt
視程: 5000m
高度3000ftの雲はほとんどない
煙霧
24日の 06時(UTC)から 24日の 12時(UTC)まで一時的に
高度3500ftの雲は散在している
24日の 18時(UTC)から 24日の 20時(UTC)まで徐々に
西/北西の風 10kt
視程: 6000m

TAF: OJAM 231650Z 2318/2424 30012KT 5000 HZ FEW035 TEMPO 2400/2405 28008KT 3000 BR FEW035 BECMG 2406/2408 29012KT 5000 HZ FEW030 TEMPO 2406/2412 SCT035 BECMG 2418/2420 30010KT 6000 NSC

4,000以上の空港の気象観測と天気予報(METAR報とTAF報)

利用可能な観測所は地図上に黄色い丸と赤い丸で示す。

丸の上にカーソルを重ねると観測所名を参照できる。

次にクリックすると気象観測と天気予報を参照できる。

マップの切り替え:黒色「×」印の緑ボタンをクリックして拡大、「-」印の緑ボタンをクリックして縮小、緑色の三角印をクリックして隣りの地図に切り替え


METAR-TAF: